Amesville, OH

9:38 AM EDT on October 25, 2014 (GMT -0400)
Decatur TWP | Change Station
CLOSE
Current Station
Personal Weather Station
Location: Little Hocking, OH
Elevation: 719 ft
Nearby Weather Stations

Elev 719 ft 39.31 °N, 81.73 °W | Updated 4 minutes ago

Clear
Clear
45.9 °F
Feels Like 46 °F
N
0.0
Wind Variable Wind from ESE
Gusts 0.4 mph

Today
High -- | Low -- °F
--% Chance of Precip.
Yesterday
High -- | Low -- °F
Precip. -- in
7:48 AM 6:34 PM
Waxing Crescent, 3% visible
Pressure 30.02 in
Visibility 10.0 miles
Clouds Clear
Windchill 46 °F
Dew Point 43 °F
Humidity 88%
Rainfall 0.00 in
Snow Depth Not available.
UV 1 out of 12
Pollen 1.80 out of 12
Air Quality Not available.
Flu Activity Sporadic
METAR KUNI 251315Z AUTO 00000KT 10SM CLR 08/05 A3002 RMK AO2 T00770052

More Conditions Fewer Conditions

Pressure 30.02 in
Visibility 10.0 miles
Clouds Clear
Windchill 46 °F
Dew Point 43 °F
Humidity 88%
Rainfall 0.00 in
Snow Depth Not available.
UV 1 out of 12
Pollen 1.80 out of 12
Air Quality Not available.
Flu Activity Sporadic
METAR KUNI 251315Z AUTO 00000KT 10SM CLR 08/05 A3002 RMK AO2 T00770052

More Conditions Fewer Conditions

10-Day Weather Forecast

Almanac

Astronomy

Oct. 25, 2014 Rise Set
Actual Time 7:48 AM EDT 6:34 PM EDT
Civil Twilight 7:20 AM EDT 7:02 PM EDT
Nautical Twilight 6:49 AM EDT 7:33 PM EDT
Astronomical Twilight 6:18 AM EDT 8:04 PM EDT
Moon 9:25 AM EDT 7:57 PM EDT
Length of Visible Light 11h 41m
Length of Day
10h 46m
Tomorrow will be 2m 23s shorter.
Waxing Crescent, 3% of the Moon is Illuminated
Today
Waxing Crescent
Oct 30
First Quarter
Nov 6
Full
Nov 14
Last Quarter
Nov 22
New

Today's Extremes

State Highs State Lows

Community

WunderPhotos

Upload Photos

1,764,829 photos uploaded!

Nearby

Snow Depth

Station Depth Elevation
No new snow has been reported.

Earthquake Activity

City Distance Mag. Time & Date
No recent earthquake activity has been reported nearby.
Minimum magnitude displayed is 2.5.

Coastal Water Temperatures

Place Temperature
No Stations Reporting

Nearby Weather Stations